Time;durP1;ratioP1;P1;durP2;ratioP2;P2;SDS_P1;SDS_P2;PMS_P1;PMS_P2;Temp;Humidity;BMP_temperature;BMP_pressure;BME280_temperature;BME280_humidity;BME280_pressure;Samples;Min_cycle;Max_cycle;Signal;HPM_P1;HPM_P2
2021/06/17 00:02:22;;;;;;;11.67;10.47;;;22.50;99.90;;;;;;5066711;28;20230;-65
2021/06/17 00:04:50;;;;;;;11.93;10.67;;;22.50;99.90;;;;;;5067434;28;20644;-66
2021/06/17 00:07:18;;;;;;;11.60;10.40;;;22.40;99.90;;;;;;5067280;28;20239;-65
2021/06/17 00:09:47;;;;;;;11.13;10.23;;;22.40;99.90;;;;;;5066925;28;20227;-65
2021/06/17 00:12:15;;;;;;;11.43;10.43;;;22.50;99.90;;;;;;5066997;28;20247;-65
2021/06/17 00:14:44;;;;;;;10.70;9.70;;;22.30;99.90;;;;;;5067320;28;20235;-66
2021/06/17 00:17:13;;;;;;;11.50;10.27;;;22.30;99.90;;;;;;5066255;28;20722;-65
2021/06/17 00:19:42;;;;;;;11.07;10.00;;;22.30;99.90;;;;;;5053809;28;20318;-66
2021/06/17 00:22:10;;;;;;;12.00;10.83;;;22.30;99.90;;;;;;5065056;28;20276;-66
2021/06/17 00:24:38;;;;;;;12.30;11.10;;;22.20;99.90;;;;;;5068181;28;20227;-66
2021/06/17 00:27:07;;;;;;;11.90;10.80;;;22.20;99.90;;;;;;5067086;28;20719;-66
2021/06/17 00:29:36;;;;;;;10.80;9.90;;;22.20;99.90;;;;;;5048498;28;20717;-65
2021/06/17 00:32:05;;;;;;;11.80;10.60;;;22.20;99.90;;;;;;5066583;28;20241;-66
2021/06/17 00:34:35;;;;;;;10.90;10.00;;;22.20;99.90;;;;;;5066928;28;20321;-66
2021/06/17 00:37:03;;;;;;;12.63;11.33;;;22.20;99.90;;;;;;5066637;28;20231;-66
2021/06/17 00:39:31;;;;;;;11.83;10.73;;;22.10;99.90;;;;;;5066894;28;20470;-65
2021/06/17 00:41:59;;;;;;;11.77;10.67;;;22.10;99.90;;;;;;5066343;28;20245;-65
2021/06/17 00:44:27;;;;;;;12.47;11.17;;;22.10;99.90;;;;;;5067014;28;20255;-64
2021/06/17 00:46:56;;;;;;;12.27;11.17;;;22.00;99.90;;;;;;5067411;28;20246;-65
2021/06/17 00:49:24;;;;;;;11.93;10.73;;;22.00;99.90;;;;;;5066985;28;20242;-65
2021/06/17 00:51:53;;;;;;;11.40;10.40;;;22.00;99.90;;;;;;5066440;28;20251;-65
2021/06/17 00:54:32;;;;;;;12.93;11.63;;;22.00;99.90;;;;;;5048749;28;20641;-66
2021/06/17 00:57:02;;;;;;;12.23;11.03;;;21.90;99.90;;;;;;5066524;28;20288;-65
2021/06/17 00:59:30;;;;;;;12.43;11.33;;;21.90;99.90;;;;;;5066445;28;20235;-65
2021/06/17 01:01:59;;;;;;;12.10;10.67;;;21.90;99.90;;;;;;5065990;28;20710;-65
2021/06/17 01:04:29;;;;;;;13.00;11.90;;;21.90;99.90;;;;;;5066687;28;20223;-65
2021/06/17 01:06:58;;;;;;;13.00;11.80;;;21.80;99.90;;;;;;5066963;28;20235;-66
2021/06/17 01:09:41;;;;;;;11.53;10.40;;;21.80;99.90;;;;;;5066441;28;20234;-65
2021/06/17 01:12:18;;;;;;;13.60;11.40;;;21.80;99.90;;;;;;5067283;28;20239;-65
2021/06/17 01:14:53;;;;;;;12.93;11.80;;;21.80;99.90;;;;;;5070304;28;20249;-66
2021/06/17 01:17:24;;;;;;;13.40;12.20;;;21.80;99.90;;;;;;5070030;28;20716;-66
2021/06/17 01:20:05;;;;;;;12.70;11.40;;;21.70;99.90;;;;;;5052080;28;20588;-66
2021/06/17 01:22:46;;;;;;;12.40;11.27;;;21.70;99.90;;;;;;5062635;28;20265;-65
2021/06/17 01:25:28;;;;;;;11.93;10.80;;;21.70;99.90;;;;;;5069777;28;20861;-65
2021/06/17 01:28:11;;;;;;;13.33;11.13;;;21.70;99.90;;;;;;5069936;28;20264;-65
2021/06/17 01:30:48;;;;;;;13.47;11.83;;;21.70;99.90;;;;;;5069090;28;20230;-66
2021/06/17 01:33:17;;;;;;;12.20;10.97;;;21.60;99.90;;;;;;5068735;28;20729;-66
2021/06/17 01:35:49;;;;;;;13.80;12.50;;;21.60;99.90;;;;;;5069290;28;20235;-66
2021/06/17 01:38:23;;;;;;;12.93;11.50;;;21.60;99.90;;;;;;5069740;28;20617;-65
2021/06/17 01:40:52;;;;;;;13.13;11.77;;;21.50;99.90;;;;;;5070397;28;20289;-65
2021/06/17 01:43:23;;;;;;;13.10;11.80;;;21.50;99.90;;;;;;5052265;28;20237;-66
2021/06/17 01:45:52;;;;;;;13.90;11.93;;;21.50;99.90;;;;;;5069798;28;20269;-66
2021/06/17 01:48:22;;;;;;;13.63;11.60;;;21.50;99.90;;;;;;5067935;28;20597;-65
2021/06/17 01:50:53;;;;;;;12.73;11.53;;;21.50;99.90;;;;;;5066922;28;20245;-66
2021/06/17 01:53:25;;;;;;;12.83;11.53;;;21.40;99.90;;;;;;5067574;28;20698;-65
2021/06/17 01:55:57;;;;;;;13.53;12.23;;;21.40;99.90;;;;;;5067683;28;20724;-65
2021/06/17 01:58:28;;;;;;;13.47;12.17;;;21.40;99.90;;;;;;5047998;28;20266;-65
2021/06/17 02:00:58;;;;;;;13.27;11.97;;;21.40;99.90;;;;;;5066973;28;20698;-66
2021/06/17 02:03:27;;;;;;;13.07;11.97;;;21.40;99.90;;;;;;5049914;28;20243;-65
2021/06/17 02:05:56;;;;;;;13.03;11.73;;;21.40;99.90;;;;;;5068356;28;20589;-66
2021/06/17 02:08:25;;;;;;;12.70;11.50;;;21.30;99.90;;;;;;5069355;28;20787;-65
2021/06/17 02:10:53;;;;;;;15.10;11.97;;;21.30;99.90;;;;;;5068722;28;20241;-66
2021/06/17 02:13:23;;;;;;;13.30;12.10;;;21.30;99.90;;;;;;5068986;28;20408;-65
2021/06/17 02:16:06;;;;;;;13.15;11.27;;;21.30;99.90;;;;;;2802670;28;10002461;-66
2021/06/17 02:18:36;;;;;;;12.50;11.30;;;21.30;99.90;;;;;;3995699;28;10001180;-65
2021/06/17 02:21:07;;;;;;;13.17;11.77;;;21.20;99.90;;;;;;5065203;28;20238;-65
2021/06/17 02:23:38;;;;;;;13.60;11.50;;;21.20;99.90;;;;;;5068661;28;20695;-65
2021/06/17 02:26:07;;;;;;;13.23;12.00;;;21.20;99.90;;;;;;5050673;28;20269;-65
2021/06/17 02:28:42;;;;;;;11.87;10.70;;;21.20;99.90;;;;;;5069047;28;20244;-65
2021/06/17 02:31:15;;;;;;;12.43;11.17;;;21.20;99.90;;;;;;5065897;28;20246;-65
2021/06/17 02:33:46;;;;;;;12.80;11.70;;;21.20;99.90;;;;;;5068990;28;20234;-66
2021/06/17 02:36:17;;;;;;;14.00;11.93;;;21.10;99.90;;;;;;5068812;28;20242;-65
2021/06/17 02:38:46;;;;;;;13.03;11.93;;;21.10;99.90;;;;;;5068219;28;20598;-65
2021/06/17 02:41:19;;;;;;;12.80;11.60;;;21.10;99.90;;;;;;5068286;28;20246;-65
2021/06/17 02:43:51;;;;;;;12.83;10.77;;;21.10;99.90;;;;;;5068489;28;20238;-66
2021/06/17 02:46:21;;;;;;;13.03;11.73;;;21.00;99.90;;;;;;5068535;28;20630;-65
2021/06/17 02:48:49;;;;;;;12.73;11.53;;;21.00;99.90;;;;;;5068454;28;20245;-65
2021/06/17 02:51:18;;;;;;;12.13;10.93;;;21.00;99.90;;;;;;5067410;28;20783;-66
2021/06/17 02:53:46;;;;;;;11.17;10.17;;;21.00;99.90;;;;;;5068182;28;20336;-65
2021/06/17 02:56:24;;;;;;;12.27;10.97;;;21.10;99.90;;;;;;5068389;28;20760;-65
2021/06/17 02:59:07;;;;;;;12.90;11.60;;;21.00;99.90;;;;;;5068432;28;20701;-66
2021/06/17 03:01:43;;;;;;;12.60;11.40;;;21.00;99.90;;;;;;5060169;28;20225;-65
2021/06/17 03:04:17;;;;;;;12.50;11.50;;;21.00;99.90;;;;;;5068393;28;20245;-65
2021/06/17 03:06:50;;;;;;;12.03;10.93;;;21.00;99.90;;;;;;5068393;28;20237;-66
2021/06/17 03:09:21;;;;;;;12.77;11.47;;;21.00;99.90;;;;;;5067909;28;21781;-65
2021/06/17 03:11:53;;;;;;;11.70;10.70;;;20.90;99.90;;;;;;5067460;28;20363;-66
2021/06/17 03:14:25;;;;;;;14.67;10.23;;;20.90;99.90;;;;;;5067766;28;20242;-65
2021/06/17 03:16:57;;;;;;;11.53;10.50;;;20.90;99.90;;;;;;5068126;28;20234;-65
2021/06/17 03:19:28;;;;;;;11.60;10.47;;;21.00;99.90;;;;;;5067729;28;20718;-65
2021/06/17 03:22:00;;;;;;;13.63;11.10;;;20.90;99.90;;;;;;5049361;28;20254;-65
2021/06/17 03:24:31;;;;;;;12.00;10.87;;;20.90;99.90;;;;;;5049662;28;20291;-65
2021/06/17 03:27:02;;;;;;;12.30;11.10;;;20.90;99.90;;;;;;5067416;28;20737;-65
2021/06/17 03:29:36;;;;;;;12.40;11.07;;;20.80;99.90;;;;;;5067414;28;20342;-66
2021/06/17 03:32:09;;;;;;;13.30;11.23;;;20.80;99.90;;;;;;5067571;28;20575;-65
2021/06/17 03:34:39;;;;;;;10.80;9.80;;;20.90;99.90;;;;;;5067038;28;20239;-65
2021/06/17 03:37:08;;;;;;;12.00;10.30;;;20.90;99.90;;;;;;5066993;28;20244;-66
2021/06/17 03:39:37;;;;;;;11.70;10.63;;;21.00;99.90;;;;;;5049449;28;20636;-66
2021/06/17 03:42:09;;;;;;;12.00;11.00;;;21.00;99.90;;;;;;5067268;28;20244;-66
2021/06/17 03:44:39;;;;;;;11.97;10.87;;;21.00;99.90;;;;;;5065993;28;20562;-66
2021/06/17 03:47:11;;;;;;;12.73;11.10;;;21.00;99.90;;;;;;5067362;28;20662;-66
2021/06/17 03:49:42;;;;;;;11.43;10.03;;;21.10;99.90;;;;;;5067010;28;20252;-65
2021/06/17 03:52:14;;;;;;;14.87;10.70;;;21.10;99.90;;;;;;5066811;28;20681;-65
2021/06/17 03:54:43;;;;;;;12.33;11.03;;;21.20;99.90;;;;;;5067312;28;20645;-66
2021/06/17 03:57:12;;;;;;;11.63;10.50;;;21.20;99.90;;;;;;5067407;28;20239;-65
2021/06/17 03:59:43;;;;;;;11.50;10.50;;;21.30;99.90;;;;;;5066957;28;20256;-65
2021/06/17 04:02:13;;;;;;;12.17;10.87;;;21.30;99.90;;;;;;5066716;28;20736;-65
2021/06/17 04:04:41;;;;;;;11.93;10.73;;;21.30;99.90;;;;;;5067286;28;20659;-65
2021/06/17 04:07:13;;;;;;;16.00;10.33;;;21.40;99.90;;;;;;5066650;28;20245;-65
2021/06/17 04:09:45;;;;;;;11.60;10.30;;;21.40;99.90;;;;;;5066498;28;20230;-66
2021/06/17 04:12:16;;;;;;;12.73;10.77;;;21.40;99.90;;;;;;5067253;28;20287;-65
2021/06/17 04:14:48;;;;;;;11.40;10.30;;;21.50;99.90;;;;;;5073548;28;20242;-65
2021/06/17 04:17:23;;;;;;;11.33;10.20;;;21.60;99.90;;;;;;5067128;28;20237;-65
2021/06/17 04:19:53;;;;;;;11.83;10.63;;;21.60;99.90;;;;;;5067211;28;20303;-66
2021/06/17 04:22:24;;;;;;;12.17;11.07;;;21.70;99.90;;;;;;5066240;28;20887;-66
2021/06/17 04:24:57;;;;;;;11.10;10.17;;;21.70;99.90;;;;;;5064712;28;20288;-65
2021/06/17 04:27:27;;;;;;;13.57;10.63;;;21.70;99.90;;;;;;5064352;28;20300;-66
2021/06/17 04:29:56;;;;;;;11.23;10.20;;;21.70;99.90;;;;;;5064930;28;20279;-66
2021/06/17 04:32:29;;;;;;;12.13;10.90;;;21.80;99.90;;;;;;5065005;28;20234;-66
2021/06/17 04:35:00;;;;;;;12.30;11.20;;;21.90;99.90;;;;;;5064464;28;20415;-65
2021/06/17 04:37:29;;;;;;;11.77;10.57;;;21.90;99.90;;;;;;5057322;28;20242;-65
2021/06/17 04:39:59;;;;;;;11.70;10.60;;;22.10;99.90;;;;;;5066716;28;20249;-66
2021/06/17 04:42:28;;;;;;;12.03;10.83;;;22.10;99.90;;;;;;5058289;28;20242;-66
2021/06/17 04:44:59;;;;;;;11.37;10.17;;;22.20;99.90;;;;;;5067440;28;20329;-66
2021/06/17 04:47:28;;;;;;;13.77;10.50;;;22.20;99.90;;;;;;5070576;28;20722;-66
2021/06/17 04:49:57;;;;;;;12.23;10.37;;;22.20;99.90;;;;;;5070036;28;20265;-66
2021/06/17 04:52:35;;;;;;;11.13;9.43;;;22.30;99.90;;;;;;5067343;28;20291;-66
2021/06/17 04:55:04;;;;;;;11.40;10.20;;;22.40;99.90;;;;;;5070176;28;20290;-66
2021/06/17 04:57:32;;;;;;;12.67;10.10;;;22.50;99.90;;;;;;5070290;28;20314;-66
2021/06/17 05:00:00;;;;;;;11.17;10.07;;;22.50;99.90;;;;;;5070006;28;20242;-66
2021/06/17 05:02:30;;;;;;;12.50;10.43;;;22.70;99.90;;;;;;5070121;28;20234;-65
2021/06/17 05:04:58;;;;;;;13.13;10.03;;;22.70;99.90;;;;;;5069912;28;20266;-66
2021/06/17 05:07:40;;;;;;;10.60;9.50;;;22.80;99.90;;;;;;5038730;28;20228;-66
2021/06/17 05:12:56;;;;;;;10.87;9.77;;;23.00;99.90;;;;;;5068689;28;20266;-66
2021/06/17 05:15:24;;;;;;;11.00;9.90;;;23.10;99.90;;;;;;5068929;28;20231;-66
2021/06/17 05:17:53;;;;;;;10.90;9.80;;;23.30;99.90;;;;;;5068216;28;20241;-66
2021/06/17 05:20:26;;;;;;;11.80;10.30;;;23.30;99.90;;;;;;5067607;28;20228;-66
2021/06/17 05:22:54;;;;;;;11.73;10.53;;;23.40;99.90;;;;;;5064214;28;20239;-66
2021/06/17 05:25:23;;;;;;;11.27;9.60;;;23.60;99.90;;;;;;5068217;28;20231;-66
2021/06/17 05:27:51;;;;;;;10.80;9.80;;;23.70;99.90;;;;;;5068444;28;20262;-66
2021/06/17 05:30:20;;;;;;;11.03;9.93;;;23.80;99.90;;;;;;5050645;28;20247;-65
2021/06/17 05:32:48;;;;;;;10.40;9.33;;;24.00;99.90;;;;;;5071199;28;20323;-67
2021/06/17 05:35:17;;;;;;;10.70;9.57;;;24.20;99.90;;;;;;5067739;28;20462;-66
2021/06/17 05:37:45;;;;;;;10.10;9.17;;;24.40;99.90;;;;;;5068147;28;20274;-66
2021/06/17 05:40:14;;;;;;;9.67;8.67;;;24.40;99.90;;;;;;5068105;28;20239;-65
2021/06/17 05:42:42;;;;;;;11.50;10.30;;;24.70;99.90;;;;;;5068279;28;20227;-66
2021/06/17 05:45:11;;;;;;;10.40;9.40;;;24.90;99.90;;;;;;5068867;28;20742;-66
2021/06/17 05:47:40;;;;;;;10.90;9.90;;;25.00;99.90;;;;;;5068758;28;20326;-66
2021/06/17 05:50:09;;;;;;;12.53;9.47;;;25.20;99.90;;;;;;5068458;28;20326;-66
2021/06/17 05:52:38;;;;;;;11.90;10.70;;;25.40;99.90;;;;;;5067478;28;20950;-67
2021/06/17 05:55:08;;;;;;;10.70;9.53;;;25.30;99.90;;;;;;5069449;28;20242;-66
2021/06/17 05:57:37;;;;;;;10.57;9.40;;;25.40;99.90;;;;;;5068280;28;20236;-67
2021/06/17 06:00:08;;;;;;;11.60;10.47;;;25.60;99.90;;;;;;5068898;28;20252;-66
2021/06/17 06:02:38;;;;;;;11.10;9.90;;;25.60;99.90;;;;;;5068880;28;20246;-66
2021/06/17 06:05:07;;;;;;;13.13;9.60;;;25.80;99.90;;;;;;5069139;28;20278;-66
2021/06/17 06:07:38;;;;;;;11.23;9.30;;;25.90;99.90;;;;;;5069911;28;20228;-66
2021/06/17 06:10:08;;;;;;;10.47;9.43;;;25.90;99.90;;;;;;5061100;28;20257;-66
2021/06/17 06:12:37;;;;;;;12.63;10.00;;;26.10;99.90;;;;;;5068829;28;20712;-66
2021/06/17 06:15:06;;;;;;;12.67;9.47;;;26.00;99.90;;;;;;5069171;28;20244;-66
2021/06/17 06:17:35;;;;;;;11.47;9.77;;;26.10;99.90;;;;;;5068980;28;20245;-66
2021/06/17 06:20:05;;;;;;;10.60;9.70;;;26.20;99.90;;;;;;5068873;28;20251;-67
2021/06/17 06:22:33;;;;;;;12.90;9.60;;;26.40;99.90;;;;;;5067901;28;20259;-67
2021/06/17 06:25:04;;;;;;;11.13;9.93;;;26.50;99.90;;;;;;5068573;28;20743;-66
2021/06/17 06:27:32;;;;;;;13.37;9.57;;;26.50;99.90;;;;;;5068139;28;20640;-66
2021/06/17 06:30:03;;;;;;;11.00;10.07;;;26.90;99.90;;;;;;5068544;28;20234;-67
2021/06/17 06:32:31;;;;;;;10.77;9.80;;;27.10;99.90;;;;;;5068312;28;20238;-66
2021/06/17 06:34:59;;;;;;;11.30;9.43;;;27.10;99.90;;;;;;5060351;28;20261;-65
2021/06/17 06:37:28;;;;;;;10.70;9.67;;;27.20;99.90;;;;;;5061064;28;20743;-66
2021/06/17 06:39:56;;;;;;;10.37;9.40;;;27.40;99.90;;;;;;5067280;28;20319;-66
2021/06/17 06:42:25;;;;;;;10.23;8.93;;;27.60;99.90;;;;;;5065437;28;20234;-66
2021/06/17 06:44:54;;;;;;;11.60;9.07;;;28.00;99.90;;;;;;5067881;28;20239;-66
2021/06/17 06:47:22;;;;;;;12.57;8.73;;;28.20;99.90;;;;;;5067611;28;20284;-66
2021/06/17 06:49:52;;;;;;;14.63;9.10;;;28.50;99.90;;;;;;5067590;28;20625;-66
2021/06/17 06:52:23;;;;;;;10.00;8.47;;;28.70;99.90;;;;;;5066794;28;20289;-66
2021/06/17 06:54:51;;;;;;;10.67;9.27;;;28.70;99.90;;;;;;5068097;28;20231;-66
2021/06/17 06:57:19;;;;;;;10.87;9.00;;;28.90;99.90;;;;;;5068385;28;20300;-65
2021/06/17 06:59:48;;;;;;;10.37;8.97;;;29.00;99.90;;;;;;5068070;28;20226;-65
2021/06/17 07:02:17;;;;;;;9.87;8.87;;;29.20;99.90;;;;;;5067722;28;20234;-66
2021/06/17 07:04:46;;;;;;;8.73;8.03;;;29.50;99.90;;;;;;5068230;28;20577;-65
2021/06/17 07:07:14;;;;;;;10.10;9.20;;;29.70;99.90;;;;;;5068203;28;20678;-66
2021/06/17 07:09:42;;;;;;;9.70;8.63;;;29.50;99.90;;;;;;5066888;28;20346;-66
2021/06/17 07:12:11;;;;;;;9.33;8.53;;;29.60;99.90;;;;;;5067599;28;20240;-66
2021/06/17 07:14:43;;;;;;;9.23;8.30;;;29.80;99.90;;;;;;5067619;28;20234;-66
2021/06/17 07:17:12;;;;;;;9.87;8.93;;;29.80;99.90;;;;;;5068053;28;20720;-66
2021/06/17 07:19:41;;;;;;;9.23;8.53;;;29.90;99.90;;;;;;5067781;28;20235;-66
2021/06/17 07:22:10;;;;;;;9.23;8.37;;;30.00;99.90;;;;;;5066813;28;20239;-65
2021/06/17 07:24:39;;;;;;;9.83;8.87;;;30.00;99.90;;;;;;5067882;28;20317;-66
2021/06/17 07:27:08;;;;;;;9.63;8.60;;;30.10;99.90;;;;;;5067954;28;20732;-66
2021/06/17 07:29:36;;;;;;;8.50;7.70;;;30.10;99.90;;;;;;5067442;28;20223;-66
2021/06/17 07:32:06;;;;;;;9.03;8.20;;;30.30;99.90;;;;;;5067840;28;20599;-65
2021/06/17 07:34:36;;;;;;;9.57;8.67;;;30.40;99.90;;;;;;5067409;28;20699;-65
2021/06/17 07:37:04;;;;;;;9.13;8.23;;;30.60;99.90;;;;;;5067412;28;20736;-66
2021/06/17 07:39:32;;;;;;;8.77;7.80;;;30.70;99.90;;;;;;5067322;28;20282;-65
2021/06/17 07:42:00;;;;;;;9.83;8.83;;;31.10;99.90;;;;;;5068169;28;20645;-66
2021/06/17 07:44:29;;;;;;;9.50;8.20;;;31.10;99.90;;;;;;5067976;28;20227;-66
2021/06/17 07:46:57;;;;;;;8.70;7.67;;;31.30;99.90;;;;;;5067784;28;20254;-66
2021/06/17 07:49:25;;;;;;;9.20;8.20;;;31.20;99.90;;;;;;5065957;28;20227;-65
2021/06/17 07:51:55;;;;;;;8.90;8.17;;;31.50;99.90;;;;;;5062490;28;20240;-66
2021/06/17 07:54:23;;;;;;;9.03;8.13;;;31.50;99.90;;;;;;5067584;28;20227;-65
2021/06/17 07:56:51;;;;;;;9.90;7.93;;;31.50;99.90;;;;;;5067493;28;20330;-66
2021/06/17 07:59:22;;;;;;;8.57;7.67;;;31.40;99.90;;;;;;5067251;28;20243;-65
2021/06/17 08:01:51;;;;;;;8.30;7.50;;;31.40;99.90;;;;;;5067744;28;20248;-65
2021/06/17 08:04:19;;;;;;;11.30;7.90;;;31.60;99.90;;;;;;5067546;28;20236;-66
2021/06/17 08:06:48;;;;;;;8.20;7.40;;;31.70;99.90;;;;;;5067276;28;20288;-65
2021/06/17 08:09:19;;;;;;;9.43;7.90;;;31.70;99.90;;;;;;5067264;28;20235;-65
2021/06/17 08:11:47;;;;;;;7.30;6.70;;;32.00;99.90;;;;;;5066655;28;20258;-65
2021/06/17 08:14:25;;;;;;;8.13;7.43;;;32.50;99.90;;;;;;5067478;28;20234;-65
2021/06/17 08:16:54;;;;;;;8.43;7.67;;;32.90;99.90;;;;;;5067258;28;20269;-65
2021/06/17 08:19:28;;;;;;;9.17;7.07;;;33.00;99.90;;;;;;5066908;28;20239;-65
2021/06/17 08:21:57;;;;;;;8.17;7.47;;;33.50;99.90;;;;;;5070876;28;20265;-66
2021/06/17 08:24:27;;;;;;;9.40;7.30;;;33.50;99.90;;;;;;5071525;28;20614;-66
2021/06/17 08:26:55;;;;;;;8.10;7.30;;;33.50;99.90;;;;;;5071274;28;20324;-66
2021/06/17 08:29:23;;;;;;;9.00;8.20;;;33.10;99.90;;;;;;5070477;28;20559;-65
2021/06/17 08:31:52;;;;;;;8.07;7.27;;;33.00;99.90;;;;;;5069725;28;20246;-65
2021/06/17 08:34:23;;;;;;;8.13;7.43;;;33.30;99.90;;;;;;5071854;28;20237;-66
2021/06/17 08:36:52;;;;;;;8.27;7.33;;;33.50;99.90;;;;;;5070514;28;20643;-65
2021/06/17 08:39:20;;;;;;;9.70;7.37;;;33.30;99.90;;;;;;5070831;28;20247;-65
2021/06/17 08:41:50;;;;;;;7.60;7.00;;;33.30;98.50;;;;;;5070715;28;20239;-65
2021/06/17 08:44:18;;;;;;;11.30;7.33;;;33.30;99.90;;;;;;5071267;28;20242;-65
2021/06/17 08:46:47;;;;;;;7.90;7.10;;;33.00;99.80;;;;;;5070822;28;20223;-65
2021/06/17 08:49:15;;;;;;;8.73;7.83;;;32.90;99.50;;;;;;5070714;28;20255;-65
2021/06/17 08:51:44;;;;;;;8.63;7.03;;;32.70;99.60;;;;;;5070036;28;20231;-65
2021/06/17 08:54:13;;;;;;;10.63;7.47;;;33.20;99.50;;;;;;5071236;28;20639;-65
2021/06/17 08:56:41;;;;;;;9.80;7.20;;;33.60;98.90;;;;;;5070602;28;20243;-65
2021/06/17 08:59:13;;;;;;;7.57;6.93;;;33.80;98.70;;;;;;5070690;28;20242;-65
2021/06/17 09:01:42;;;;;;;8.80;6.97;;;34.00;98.50;;;;;;5069957;28;20255;-65
2021/06/17 09:04:20;;;;;;;10.03;7.17;;;33.90;98.40;;;;;;5070348;28;20243;-65
2021/06/17 09:07:01;;;;;;;7.43;6.73;;;34.20;99.00;;;;;;5070356;28;20233;-66
2021/06/17 09:09:33;;;;;;;7.10;6.50;;;34.80;98.00;;;;;;5070282;28;20292;-65
2021/06/17 09:12:02;;;;;;;7.50;6.67;;;34.90;97.40;;;;;;5069683;28;20239;-65
2021/06/17 09:14:32;;;;;;;6.87;6.27;;;35.10;96.60;;;;;;5070152;28;20293;-65
2021/06/17 09:17:03;;;;;;;7.30;6.60;;;35.00;96.90;;;;;;5070603;28;20263;-66
2021/06/17 09:19:43;;;;;;;8.03;6.47;;;34.60;96.60;;;;;;5069050;28;20254;-65
2021/06/17 09:22:13;;;;;;;7.77;5.83;;;34.20;96.00;;;;;;5049441;28;20250;-65
2021/06/17 09:24:46;;;;;;;7.73;6.40;;;34.60;96.00;;;;;;5070260;28;20635;-65
2021/06/17 09:27:25;;;;;;;6.57;5.93;;;35.10;96.20;;;;;;5069965;28;20330;-65
2021/06/17 09:29:56;;;;;;;7.13;6.50;;;35.20;95.90;;;;;;5070132;28;20258;-65
2021/06/17 09:32:27;;;;;;;9.10;6.30;;;35.30;95.20;;;;;;5069242;28;20698;-65
2021/06/17 09:34:56;;;;;;;6.70;5.90;;;35.00;95.20;;;;;;5069882;28;20329;-65
2021/06/17 09:37:32;;;;;;;7.83;6.23;;;35.20;95.10;;;;;;5069706;28;20243;-65
2021/06/17 09:40:20;;;;;;;6.60;6.00;;;35.20;95.50;;;;;;5069788;28;20308;-65
2021/06/17 09:42:49;;;;;;;9.27;6.00;;;35.00;94.90;;;;;;5069474;28;20235;-65
2021/06/17 09:45:20;;;;;;;5.77;5.20;;;34.80;94.20;;;;;;5069907;28;20258;-65
2021/06/17 09:47:48;;;;;;;6.67;6.00;;;35.10;94.30;;;;;;5069450;28;20266;-65
2021/06/17 09:50:25;;;;;;;8.60;6.30;;;34.40;94.70;;;;;;5069019;28;20241;-65
2021/06/17 09:52:54;;;;;;;8.07;6.07;;;34.50;95.00;;;;;;5072020;28;20667;-65
2021/06/17 09:55:40;;;;;;;6.23;5.60;;;34.80;94.20;;;;;;5051716;28;20312;-65
2021/06/17 09:58:12;;;;;;;6.37;5.77;;;35.60;94.00;;;;;;5049574;28;20232;-65
2021/06/17 10:00:58;;;;;;;8.13;5.93;;;36.00;93.70;;;;;;5065662;28;20595;-64
2021/06/17 10:03:26;;;;;;;6.07;5.47;;;36.10;93.50;;;;;;5049780;28;20810;-65
2021/06/17 10:05:56;;;;;;;7.53;5.90;;;36.00;92.90;;;;;;5067944;28;20231;-66
2021/06/17 10:08:24;;;;;;;6.80;5.50;;;35.90;93.20;;;;;;5069599;28;20285;-65
2021/06/17 10:10:53;;;;;;;7.50;5.60;;;36.30;92.60;;;;;;5068614;28;20587;-65
2021/06/17 10:13:26;;;;;;;6.13;5.40;;;36.80;92.50;;;;;;5069090;28;20243;-65
2021/06/17 10:15:54;;;;;;;7.60;5.70;;;37.00;91.40;;;;;;5069317;28;20706;-65
2021/06/17 10:18:24;;;;;;;5.27;4.63;;;37.00;91.60;;;;;;5080664;28;20239;-65
2021/06/17 10:20:53;;;;;;;6.67;5.50;;;37.30;91.40;;;;;;5069548;28;20260;-65
2021/06/17 10:23:22;;;;;;;8.27;5.03;;;37.40;90.10;;;;;;5068546;28;20289;-64
2021/06/17 10:25:50;;;;;;;7.87;5.47;;;37.20;90.70;;;;;;5067895;28;20262;-65
2021/06/17 10:28:40;;;;;;;6.50;5.80;;;36.70;90.60;;;;;;5069212;28;20321;-65
2021/06/17 10:31:09;;;;;;;5.90;5.40;;;36.20;89.60;;;;;;5055318;28;20239;-65
2021/06/17 10:33:40;;;;;;;6.60;5.10;;;36.30;90.70;;;;;;5068329;28;20281;-65
2021/06/17 10:36:25;;;;;;;6.43;4.40;;;36.50;90.60;;;;;;5066477;28;20308;-65
2021/06/17 10:39:17;;;;;;;5.00;4.50;;;36.70;87.20;;;;;;5066808;28;20270;-65
2021/06/17 10:42:20;;;;;;;7.43;4.70;;;37.20;89.80;;;;;;5067825;28;20300;-65
2021/06/17 10:44:51;;;;;;;7.13;5.00;;;37.20;88.20;;;;;;5068225;28;20772;-64
2021/06/17 10:48:01;;;;;;;4.60;4.20;;;37.20;89.10;;;;;;5068786;28;20650;-65
2021/06/17 10:50:39;;;;;;;5.50;4.30;;;37.80;84.00;;;;;;5061116;28;20644;-65
2021/06/17 10:53:19;;;;;;;4.70;4.30;;;37.50;83.90;;;;;;5067795;28;20245;-65
2021/06/17 10:55:52;;;;;;;5.00;4.50;;;37.50;85.20;;;;;;5067789;28;20264;-65
2021/06/17 10:59:03;;;;;;;6.13;4.10;;;37.60;84.20;;;;;;5068253;28;20239;-65
2021/06/17 11:01:42;;;;;;;8.80;4.43;;;37.30;82.50;;;;;;5063818;28;20243;-64
2021/06/17 11:04:16;;;;;;;7.07;4.20;;;37.40;82.40;;;;;;5061393;28;20274;-64
2021/06/17 11:07:19;;;;;;;6.27;4.30;;;37.30;78.70;;;;;;5050316;28;20325;-65
2021/06/17 11:10:09;;;;;;;7.00;4.07;;;37.70;80.80;;;;;;5055095;28;20235;-65
2021/06/17 11:12:52;;;;;;;5.00;4.50;;;37.30;80.20;;;;;;5060057;28;20233;-65
2021/06/17 11:15:44;;;;;;;6.00;4.47;;;37.70;79.50;;;;;;5064828;28;20676;-64
2021/06/17 11:18:14;;;;;;;4.60;4.10;;;38.10;79.90;;;;;;5059942;28;20249;-65
2021/06/17 11:20:45;;;;;;;4.87;4.37;;;38.10;80.80;;;;;;5060282;28;20234;-65
2021/06/17 11:23:21;;;;;;;7.37;4.40;;;38.60;80.70;;;;;;5062941;28;20360;-65
2021/06/17 11:25:57;;;;;;;7.33;3.90;;;38.30;80.30;;;;;;5063529;28;20250;-64
2021/06/17 11:28:53;;;;;;;5.20;4.30;;;38.50;79.90;;;;;;5064632;28;20292;-65
2021/06/17 11:31:36;;;;;;;5.50;4.37;;;38.40;78.70;;;;;;5059208;28;20242;-64
2021/06/17 11:34:04;;;;;;;5.90;4.50;;;38.10;78.00;;;;;;5064078;28;20248;-65
2021/06/17 11:36:33;;;;;;;4.80;4.40;;;37.80;78.60;;;;;;5065262;28;20259;-64
2021/06/17 11:39:03;;;;;;;5.63;4.47;;;37.70;77.80;;;;;;5066495;28;20248;-64
2021/06/17 11:41:51;;;;;;;6.87;4.50;;;37.60;77.80;;;;;;5064940;28;20239;-64
2021/06/17 11:44:23;;;;;;;4.77;4.27;;;37.70;77.70;;;;;;5064866;28;20248;-64
2021/06/17 11:46:52;;;;;;;4.83;3.90;;;37.00;75.50;;;;;;5063573;28;20260;-64
2021/06/17 11:49:33;;;;;;;6.17;4.20;;;37.10;76.40;;;;;;5064505;28;20229;-64
2021/06/17 11:52:02;;;;;;;4.83;4.33;;;37.40;76.80;;;;;;5064541;28;20289;-64
2021/06/17 11:54:32;;;;;;;4.60;4.20;;;37.30;76.80;;;;;;5064348;28;20302;-64
2021/06/17 11:57:02;;;;;;;4.73;4.20;;;36.90;76.10;;;;;;5064835;28;20277;-64
2021/06/17 11:59:32;;;;;;;4.73;4.33;;;36.70;76.20;;;;;;5055915;28;20293;-64
2021/06/17 12:02:16;;;;;;;6.70;3.80;;;36.50;75.60;;;;;;5056020;28;20584;-65
2021/06/17 12:04:56;;;;;;;4.53;3.77;;;36.70;76.60;;;;;;5067134;28;20238;-65
2021/06/17 12:07:28;;;;;;;6.97;4.20;;;36.60;76.10;;;;;;5056117;28;20250;-65
2021/06/17 12:10:09;;;;;;;5.73;4.10;;;36.40;77.20;;;;;;5063997;28;20251;-64
2021/06/17 12:12:40;;;;;;;5.00;3.70;;;36.60;77.00;;;;;;5064999;28;20259;-64
2021/06/17 12:15:10;;;;;;;5.87;3.80;;;36.40;77.10;;;;;;5067672;28;20638;-64
2021/06/17 12:17:43;;;;;;;3.90;3.50;;;36.20;79.20;;;;;;5066263;28;20253;-64
2021/06/17 12:20:17;;;;;;;4.10;3.70;;;36.20;75.00;;;;;;5047368;28;20648;-64
2021/06/17 12:22:48;;;;;;;8.13;4.30;;;35.90;75.70;;;;;;5064823;28;20328;-64
2021/06/17 12:25:21;;;;;;;5.30;4.33;;;35.90;74.00;;;;;;5064278;28;20246;-64
2021/06/17 12:27:51;;;;;;;6.03;4.10;;;35.90;77.30;;;;;;5064556;28;20561;-64
2021/06/17 12:30:31;;;;;;;4.70;4.30;;;35.80;77.90;;;;;;5063716;28;20228;-64
2021/06/17 12:33:06;;;;;;;4.33;3.93;;;35.80;77.50;;;;;;5065476;28;20373;-64
2021/06/17 12:35:43;;;;;;;4.20;3.80;;;35.90;75.30;;;;;;5064356;28;20238;-64
2021/06/17 12:38:12;;;;;;;4.70;3.80;;;35.70;76.90;;;;;;5065315;28;20240;-64
2021/06/17 12:40:44;;;;;;;4.33;3.80;;;35.50;76.60;;;;;;5064198;28;20226;-64
2021/06/17 12:43:16;;;;;;;4.50;3.90;;;35.60;77.80;;;;;;5046996;28;20250;-64
2021/06/17 12:45:46;;;;;;;5.83;3.80;;;35.20;75.90;;;;;;5064720;28;20235;-64
2021/06/17 12:54:23;;;;;;;4.67;4.00;;;35.50;77.70;;;;;;5054041;28;20259;-64
2021/06/17 12:56:54;;;;;;;4.90;3.80;;;35.50;76.10;;;;;;5064637;28;21839;-64
2021/06/17 12:59:38;;;;;;;4.93;4.17;;;35.10;75.20;;;;;;5064094;28;20270;-64
2021/06/17 13:02:07;;;;;;;4.50;4.10;;;35.10;74.80;;;;;;5063896;28;20362;-64
2021/06/17 13:04:37;;;;;;;4.37;3.93;;;35.10;76.50;;;;;;5062352;28;20738;-64
2021/06/17 13:07:16;;;;;;;4.70;3.90;;;35.00;76.90;;;;;;5048806;28;20242;-64
2021/06/17 13:09:45;;;;;;;5.60;4.00;;;35.00;76.80;;;;;;5057154;28;20729;-64
2021/06/17 13:12:17;;;;;;;5.77;4.07;;;34.80;75.00;;;;;;5059829;28;20239;-65